createdAt,value
2023-04-29T00:00:04.638Z,93.5649
2023-04-29T00:01:07.834Z,93.9957
2023-04-29T00:02:10.948Z,94.0857
2023-04-29T00:03:14.349Z,94.1706
2023-04-29T00:04:14.563Z,93.2725
2023-04-29T00:05:14.926Z,93.2042
2023-04-29T00:06:15.460Z,93.3594
2023-04-29T00:07:16.517Z,93.1742
2023-04-29T00:08:19.635Z,93.6068
2023-04-29T00:09:22.761Z,93.5017
2023-04-29T00:10:25.857Z,93.0773
2023-04-29T00:11:29.048Z,93.3121
2023-04-29T00:12:32.198Z,93.0384
2023-04-29T00:13:35.257Z,93.5468
2023-04-29T00:14:38.366Z,92.9961
2023-04-29T00:15:41.501Z,93.6223
2023-04-29T00:16:44.647Z,93.1312
2023-04-29T00:17:47.729Z,93.3211
2023-04-29T00:18:50.824Z,93.6831
2023-04-29T00:19:54.286Z,93.6821
2023-04-29T00:20:54.419Z,93.6461
2023-04-29T00:21:56.333Z,93.4504
2023-04-29T00:22:56.249Z,93.2001
2023-04-29T00:23:59.340Z,93.8109
2023-04-29T00:25:02.451Z,93.6539
2023-04-29T00:26:05.584Z,93.7057
2023-04-29T00:27:08.756Z,93.3150
2023-04-29T00:28:11.873Z,93.7921
2023-04-29T00:29:14.973Z,93.4486
2023-04-29T00:30:18.059Z,94.1066
2023-04-29T00:31:21.218Z,93.9112
2023-04-29T00:32:24.299Z,93.8340
2023-04-29T00:33:27.461Z,93.3764
2023-04-29T00:34:27.363Z,93.6889
2023-04-29T00:35:30.473Z,93.5823
2023-04-29T00:36:33.594Z,93.7826
2023-04-29T00:37:36.686Z,94.0015
2023-04-29T00:38:39.943Z,94.2527
2023-04-29T00:39:39.832Z,94.2480
2023-04-29T00:40:42.954Z,94.0966
2023-04-29T00:41:46.223Z,94.2706
2023-04-29T00:42:49.293Z,94.2234
2023-04-29T00:43:52.427Z,94.4707
2023-04-29T00:44:55.539Z,93.9281
2023-04-29T00:45:58.659Z,94.0805
2023-04-29T00:47:01.762Z,93.7579
2023-04-29T00:48:05.265Z,93.7528
2023-04-29T00:49:05.743Z,94.3843
2023-04-29T00:50:05.628Z,93.9964
2023-04-29T00:51:08.719Z,93.6411
2023-04-29T00:52:11.809Z,94.0910
2023-04-29T00:53:14.995Z,93.5922
2023-04-29T00:54:18.119Z,93.7747
2023-04-29T00:55:21.217Z,94.4337
2023-04-29T00:56:24.382Z,94.0853
2023-04-29T00:57:27.441Z,94.0645
2023-04-29T00:58:30.692Z,94.0800
2023-04-29T00:59:30.580Z,92.8829
2023-04-29T01:00:33.705Z,92.8408
2023-04-29T01:01:37.171Z,93.6215
2023-04-29T01:02:37.210Z,93.9364
2023-04-29T01:03:37.335Z,93.5396
2023-04-29T01:04:37.374Z,94.4314
2023-04-29T01:05:40.526Z,93.9177
2023-04-29T01:06:43.626Z,94.4234
2023-04-29T01:07:46.749Z,94.3440
2023-04-29T01:08:49.853Z,94.1923
2023-04-29T01:09:53.263Z,94.1370
2023-04-29T01:10:53.317Z,94.2306
2023-04-29T01:11:56.392Z,94.5653
2023-04-29T01:12:59.518Z,94.7616
2023-04-29T01:14:02.619Z,94.5195
2023-04-29T01:15:05.725Z,94.6309
2023-04-29T01:16:09.081Z,94.3478
2023-04-29T01:17:08.988Z,94.5708
2023-04-29T01:18:12.104Z,94.5735
2023-04-29T01:19:15.183Z,94.4484
2023-04-29T01:20:18.264Z,94.5450
2023-04-29T01:21:21.382Z,94.3097
2023-04-29T01:22:24.525Z,94.3168
2023-04-29T01:23:27.634Z,94.1623
2023-04-29T01:24:30.772Z,94.3734
2023-04-29T01:25:33.897Z,93.7000
2023-04-29T01:26:37.010Z,93.8941
2023-04-29T01:27:40.168Z,94.2186
2023-04-29T01:28:43.378Z,94.3960
2023-04-29T01:29:46.455Z,94.0766
2023-04-29T01:30:49.557Z,93.5715
2023-04-29T01:31:52.794Z,93.4331
2023-04-29T01:32:52.783Z,93.0166
2023-04-29T01:33:55.976Z,92.8706
2023-04-29T01:34:59.150Z,92.5200
2023-04-29T01:35:59.086Z,92.8148
2023-04-29T01:37:02.183Z,92.4613
2023-04-29T01:38:05.349Z,91.8981
2023-04-29T01:39:08.590Z,91.4085
2023-04-29T01:40:08.508Z,91.8652
2023-04-29T01:41:11.623Z,91.4084
2023-04-29T01:42:14.735Z,91.2515
2023-04-29T01:43:17.874Z,91.4207
2023-04-29T01:44:17.881Z,91.1824
2023-04-29T01:45:20.997Z,90.8762
2023-04-29T01:46:24.155Z,90.8533
2023-04-29T01:47:27.331Z,90.9111
2023-04-29T01:48:30.467Z,91.7246
2023-04-29T01:50:48.303Z,90.7681
2023-04-29T01:50:48.303Z,91.3080
2023-04-29T01:51:48.214Z,91.1604
2023-04-29T01:52:51.379Z,90.9940
2023-04-29T01:53:51.407Z,91.3055
2023-04-29T01:54:51.337Z,91.1310
2023-04-29T01:55:54.576Z,90.8718
2023-04-29T01:56:54.477Z,91.9564
2023-04-29T01:57:57.625Z,91.1282
2023-04-29T01:59:00.807Z,91.2449
2023-04-29T02:00:00.743Z,91.4756
2023-04-29T02:01:03.976Z,90.9061
2023-04-29T02:02:03.955Z,90.5298
2023-04-29T02:03:03.993Z,90.8976
2023-04-29T02:04:04.098Z,90.0640
2023-04-29T02:05:07.200Z,90.5206
2023-04-29T02:06:10.337Z,90.7355
2023-04-29T02:07:13.508Z,90.3078
2023-04-29T02:08:16.654Z,89.6215
2023-04-29T02:09:19.904Z,89.6564
2023-04-29T02:10:19.829Z,89.8271
2023-04-29T02:11:23.162Z,90.1242
2023-04-29T02:12:23.079Z,89.6545
2023-04-29T02:13:23.469Z,90.1924
2023-04-29T02:14:23.473Z,90.4628
2023-04-29T02:15:23.509Z,90.4156
2023-04-29T02:16:26.682Z,90.7495
2023-04-29T02:17:29.771Z,90.6637
2023-04-29T02:18:33.013Z,90.8228
2023-04-29T02:19:33.074Z,90.7995
2023-04-29T02:20:33.076Z,90.8073
2023-04-29T02:21:33.060Z,90.9957
2023-04-29T02:22:36.278Z,90.7518
2023-04-29T02:23:36.245Z,90.8425
2023-04-29T02:24:39.470Z,90.7829
2023-04-29T02:25:39.505Z,91.0511
2023-04-29T02:26:39.445Z,90.9546
2023-04-29T02:27:42.687Z,91.3446
2023-04-29T02:28:45.803Z,91.5931
2023-04-29T02:29:49.014Z,90.7396
2023-04-29T02:30:48.972Z,90.5668
2023-04-29T02:31:52.143Z,90.9683
2023-04-29T02:32:55.352Z,91.0547
2023-04-29T02:33:55.277Z,90.6582
2023-04-29T02:34:58.423Z,90.4122
2023-04-29T02:36:01.613Z,90.6316
2023-04-29T02:37:01.559Z,90.5123
2023-04-29T02:38:04.756Z,89.9431
2023-04-29T02:39:04.688Z,88.8324
2023-04-29T02:40:07.838Z,89.8511
2023-04-29T02:41:11.021Z,90.0405
2023-04-29T02:42:10.976Z,89.5849
2023-04-29T02:43:14.178Z,88.5667
2023-04-29T02:44:14.117Z,87.5132
2023-04-29T02:45:17.267Z,88.5306
2023-04-29T02:46:20.449Z,88.3336
2023-04-29T02:47:23.582Z,87.3475
2023-04-29T02:48:26.782Z,87.7556
2023-04-29T02:49:26.809Z,87.6910
2023-04-29T02:50:26.768Z,88.6957
2023-04-29T02:51:29.918Z,87.6276
2023-04-29T02:52:33.034Z,86.7405
2023-04-29T02:53:36.252Z,88.2918
2023-04-29T02:54:36.217Z,88.3706
2023-04-29T02:55:39.396Z,89.2237
2023-04-29T02:56:42.557Z,88.8514
2023-04-29T02:57:45.778Z,89.0097
2023-04-29T02:58:45.747Z,88.9449
2023-04-29T02:59:48.928Z,88.9943
2023-04-29T03:00:52.131Z,87.8825
2023-04-29T03:01:53.329Z,88.7692
2023-04-29T03:02:53.388Z,88.0318
2023-04-29T03:03:53.633Z,88.0421
2023-04-29T03:04:54.566Z,88.5285
2023-04-29T03:05:57.811Z,88.1242
2023-04-29T03:06:57.723Z,87.9010
2023-04-29T03:08:00.895Z,87.9426
2023-04-29T03:09:04.040Z,88.5361
2023-04-29T03:10:07.232Z,88.9482
2023-04-29T03:11:07.197Z,89.5256
2023-04-29T03:12:10.415Z,88.6954
2023-04-29T03:13:10.424Z,89.1537
2023-04-29T03:14:10.365Z,88.9882
2023-04-29T03:15:11.332Z,88.9777
2023-04-29T03:16:14.513Z,89.2791
2023-04-29T03:17:17.697Z,89.2304
2023-04-29T03:18:17.734Z,89.3326
2023-04-29T03:19:17.705Z,88.8950
2023-04-29T03:20:20.881Z,89.1424
2023-04-29T03:21:20.893Z,88.8806
2023-04-29T03:22:24.073Z,88.4182
2023-04-29T03:23:27.235Z,88.5017
2023-04-29T03:24:27.285Z,88.9113
2023-04-29T03:25:30.481Z,88.3150
2023-04-29T03:26:30.559Z,88.3852
2023-04-29T03:27:30.465Z,88.4803
2023-04-29T03:28:34.428Z,88.2233
2023-04-29T03:29:34.335Z,87.9298
2023-04-29T03:30:37.477Z,88.1503
2023-04-29T03:31:40.694Z,87.2280
2023-04-29T03:32:40.716Z,88.2132
2023-04-29T03:33:40.675Z,89.0933
2023-04-29T03:34:44.011Z,88.4087
2023-04-29T03:35:44.019Z,88.8451
2023-04-29T03:36:43.997Z,89.1793
2023-04-29T03:37:43.966Z,88.7928
2023-04-29T03:38:47.162Z,88.0971
2023-04-29T03:39:47.204Z,88.0422
2023-04-29T03:40:47.107Z,87.8589
2023-04-29T03:42:11.357Z,87.4643
2023-04-29T03:42:52.119Z,86.9107
2023-04-29T03:43:52.133Z,85.6962
2023-04-29T03:44:52.091Z,86.7485
2023-04-29T03:45:55.311Z,86.6601
2023-04-29T03:46:55.343Z,86.1214
2023-04-29T03:47:55.365Z,86.9479
2023-04-29T03:48:58.513Z,88.1053
2023-04-29T03:50:01.737Z,88.2579
2023-04-29T03:51:02.687Z,88.2379
2023-04-29T03:52:05.846Z,87.9701
2023-04-29T03:53:05.788Z,87.6106
2023-04-29T03:54:08.952Z,88.3250
2023-04-29T03:55:12.124Z,87.7162
2023-04-29T03:56:16.944Z,86.9431
2023-04-29T03:57:17.372Z,88.2268
2023-04-29T03:58:17.443Z,88.6848
2023-04-29T03:59:17.734Z,88.5908
2023-04-29T04:00:17.674Z,88.5993
2023-04-29T04:01:17.668Z,88.4422
2023-04-29T04:02:20.935Z,89.0438
2023-04-29T04:03:21.200Z,88.5281
2023-04-29T04:04:21.382Z,87.9343
2023-04-29T04:05:21.416Z,87.2808
2023-04-29T04:06:24.562Z,87.7127
2023-04-29T04:07:24.597Z,87.2132
2023-04-29T04:08:27.829Z,87.6217
2023-04-29T04:09:27.766Z,87.5323
2023-04-29T04:10:30.931Z,87.7235
2023-04-29T04:11:34.063Z,88.7886
2023-04-29T04:12:37.269Z,88.4700
2023-04-29T04:13:37.309Z,88.1514
2023-04-29T04:14:37.202Z,88.2037
2023-04-29T04:15:40.339Z,88.6603
2023-04-29T04:16:43.582Z,88.8150
2023-04-29T04:17:44.561Z,88.6718
2023-04-29T04:18:47.723Z,88.9147
2023-04-29T04:19:51.046Z,89.4395
2023-04-29T04:20:52.161Z,89.3242
2023-04-29T04:21:55.282Z,89.7954
2023-04-29T04:22:58.379Z,89.0575
2023-04-29T04:24:01.631Z,88.9103
2023-04-29T04:25:01.862Z,88.8926
2023-04-29T04:26:01.870Z,88.6380
2023-04-29T04:27:01.995Z,87.6904
2023-04-29T04:28:01.899Z,88.2125
2023-04-29T04:29:05.024Z,88.4865
2023-04-29T04:30:08.325Z,88.3047
2023-04-29T04:31:08.367Z,87.7739
2023-04-29T04:32:08.303Z,88.0492
2023-04-29T04:33:08.289Z,88.3109
2023-04-29T04:34:12.137Z,88.5235
2023-04-29T04:35:12.126Z,88.7702
2023-04-29T04:36:15.300Z,88.1031
2023-04-29T04:37:15.361Z,87.6483
2023-04-29T04:38:15.298Z,87.4744
2023-04-29T04:39:18.449Z,88.1336
2023-04-29T04:40:21.595Z,87.4238
2023-04-29T04:41:25.077Z,88.1321
2023-04-29T04:42:25.077Z,87.6822
2023-04-29T04:43:28.236Z,88.0552
2023-04-29T04:44:31.462Z,88.2500
2023-04-29T04:45:31.366Z,88.2657
2023-04-29T04:46:34.554Z,88.2554
2023-04-29T04:47:37.744Z,87.5331
2023-04-29T04:48:40.854Z,87.5756
2023-04-29T04:49:44.029Z,88.5201
2023-04-29T04:50:47.184Z,88.3697
2023-04-29T04:51:50.328Z,86.9240
2023-04-29T04:52:53.521Z,88.0201
2023-04-29T04:53:56.616Z,88.3170
2023-04-29T04:54:59.757Z,88.5526
2023-04-29T04:56:02.897Z,87.6090
2023-04-29T04:57:06.077Z,88.2428
2023-04-29T04:58:06.039Z,88.2217
2023-04-29T04:59:09.454Z,88.1415
2023-04-29T05:00:09.358Z,88.9481
2023-04-29T05:01:12.550Z,89.1591
2023-04-29T05:02:15.746Z,89.3181
2023-04-29T05:03:19.028Z,89.4259
2023-04-29T05:04:19.956Z,88.8142
2023-04-29T05:05:20.042Z,88.5157
2023-04-29T05:06:19.961Z,89.1688
2023-04-29T05:07:23.727Z,88.8550
2023-04-29T05:08:23.668Z,89.4821
2023-04-29T05:09:26.772Z,89.5459
2023-04-29T05:10:29.923Z,88.6873
2023-04-29T05:11:33.104Z,89.2046
2023-04-29T05:12:33.065Z,88.9493
2023-04-29T05:13:36.233Z,89.0378
2023-04-29T05:14:36.196Z,89.1811
2023-04-29T05:15:39.336Z,89.1275
2023-04-29T05:16:42.834Z,88.6878
2023-04-29T05:17:42.861Z,88.0317
2023-04-29T05:18:45.979Z,87.5102
2023-04-29T05:19:49.305Z,87.3790
2023-04-29T05:20:49.240Z,87.7163
2023-04-29T05:21:52.433Z,88.0287
2023-04-29T05:22:52.379Z,88.6093
2023-04-29T05:23:55.502Z,88.2987
2023-04-29T05:24:58.651Z,86.8589
2023-04-29T05:26:01.861Z,87.5952
2023-04-29T05:27:01.805Z,87.5986
2023-04-29T05:28:05.020Z,86.9496
2023-04-29T05:29:08.257Z,88.0548
2023-04-29T05:30:08.230Z,87.6394
2023-04-29T05:31:11.569Z,87.3220
2023-04-29T05:32:11.544Z,87.5698
2023-04-29T05:33:16.053Z,87.4566
2023-04-29T05:34:15.999Z,86.8907
2023-04-29T05:35:16.388Z,86.8695
2023-04-29T05:36:16.289Z,86.1992
2023-04-29T05:37:19.482Z,86.4437
2023-04-29T05:38:19.483Z,86.8201
2023-04-29T05:39:22.699Z,86.8388
2023-04-29T05:40:22.678Z,87.2548
2023-04-29T05:41:25.832Z,87.4560
2023-04-29T05:42:25.839Z,87.6625
2023-04-29T05:43:29.058Z,87.0493
2023-04-29T05:44:29.003Z,86.9281
2023-04-29T05:45:29.815Z,86.6413
2023-04-29T05:46:30.287Z,85.8749
2023-04-29T05:47:30.528Z,85.5710
2023-04-29T05:48:30.576Z,86.6565
2023-04-29T05:49:33.755Z,86.4893
2023-04-29T05:50:36.946Z,86.5340
2023-04-29T05:51:37.429Z,85.9513
2023-04-29T05:52:37.360Z,86.3204
2023-04-29T05:53:40.570Z,86.0119
2023-04-29T05:54:40.570Z,86.3718
2023-04-29T05:55:40.557Z,85.8919
2023-04-29T05:56:43.739Z,85.3911
2023-04-29T05:57:43.869Z,85.9503
2023-04-29T05:58:44.264Z,86.5158
2023-04-29T05:59:44.189Z,87.6651
2023-04-29T06:00:44.162Z,87.4324
2023-04-29T06:01:47.596Z,86.6749
2023-04-29T06:02:58.280Z,86.9331
2023-04-29T06:03:50.639Z,86.2771
2023-04-29T06:04:51.081Z,85.9569
2023-04-29T06:05:51.226Z,86.3882
2023-04-29T06:06:53.473Z,86.4347
2023-04-29T06:07:53.370Z,86.4967
2023-04-29T06:08:56.527Z,87.0731
2023-04-29T06:09:59.710Z,86.4884
2023-04-29T06:11:02.898Z,87.2194
2023-04-29T06:12:06.052Z,87.1608
2023-04-29T06:13:09.266Z,87.6492
2023-04-29T06:14:12.410Z,87.5475
2023-04-29T06:15:15.550Z,87.2043
2023-04-29T06:16:18.838Z,87.6121
2023-04-29T06:17:18.775Z,86.5725
2023-04-29T06:18:21.907Z,86.9089
2023-04-29T06:19:25.188Z,87.1800
2023-04-29T06:20:25.086Z,86.9176
2023-04-29T06:21:28.330Z,87.1027
2023-04-29T06:22:28.285Z,87.4687
2023-04-29T06:23:31.443Z,88.1045
2023-04-29T06:24:34.652Z,88.0026
2023-04-29T06:25:37.741Z,88.4137
2023-04-29T06:26:40.944Z,88.0415
2023-04-29T06:27:44.061Z,88.5670
2023-04-29T06:28:47.226Z,88.7601
2023-04-29T06:29:50.381Z,88.6448
2023-04-29T06:30:53.498Z,88.5488
2023-04-29T06:31:56.665Z,89.1610
2023-04-29T06:32:59.825Z,89.2572
2023-04-29T06:34:02.979Z,88.6735
2023-04-29T06:35:06.116Z,87.9930
2023-04-29T06:36:09.240Z,88.0781
2023-04-29T06:37:12.382Z,88.3431
2023-04-29T06:38:15.592Z,88.6371
2023-04-29T06:39:15.634Z,88.2615
2023-04-29T06:40:15.622Z,87.2136
2023-04-29T06:41:18.748Z,87.3371
2023-04-29T06:42:18.738Z,87.5214
2023-04-29T06:43:21.874Z,87.6112
2023-04-29T06:44:25.230Z,87.3208
2023-04-29T06:45:25.368Z,87.6128
2023-04-29T06:46:25.345Z,87.4211
2023-04-29T06:47:28.583Z,87.4889
2023-04-29T06:48:28.494Z,86.7548
2023-04-29T06:49:31.683Z,86.4210
2023-04-29T06:50:31.711Z,86.4232
2023-04-29T06:51:34.985Z,87.1868
2023-04-29T06:52:34.996Z,86.3985
2023-04-29T06:53:38.141Z,86.3093
2023-04-29T06:54:38.099Z,86.4342
2023-04-29T06:55:41.252Z,86.2026
2023-04-29T06:56:44.402Z,86.6613
2023-04-29T06:57:47.553Z,86.1650
2023-04-29T06:58:50.701Z,85.8242
2023-04-29T06:59:54.013Z,85.7565
2023-04-29T07:00:54.267Z,85.6498
2023-04-29T07:01:54.310Z,86.0778
2023-04-29T07:02:54.362Z,84.6684
2023-04-29T07:03:54.408Z,84.4026
2023-04-29T07:04:54.525Z,84.0342
2023-04-29T07:05:54.665Z,83.9320
2023-04-29T07:06:54.625Z,83.4499
2023-04-29T07:07:57.794Z,83.1546
2023-04-29T07:09:00.974Z,82.4437
2023-04-29T07:10:04.154Z,82.2104
2023-04-29T07:11:07.307Z,82.4777
2023-04-29T07:12:10.541Z,82.2025
2023-04-29T07:13:13.663Z,82.2993
2023-04-29T07:14:16.844Z,81.7618
2023-04-29T07:15:20.002Z,81.9552
2023-04-29T07:16:23.176Z,81.8650
2023-04-29T07:17:26.414Z,82.1351
2023-04-29T07:18:26.324Z,83.8931
2023-04-29T07:19:29.500Z,81.7057
2023-04-29T07:20:29.442Z,80.6458
2023-04-29T07:21:32.643Z,80.7519
2023-04-29T07:22:32.589Z,81.4532
2023-04-29T07:23:35.769Z,80.8436
2023-04-29T07:24:39.236Z,80.9363
2023-04-29T07:25:39.172Z,81.0628
2023-04-29T07:26:42.368Z,80.8310
2023-04-29T07:27:42.356Z,81.3844
2023-04-29T07:28:45.553Z,81.5651
2023-04-29T07:29:45.515Z,81.6450
2023-04-29T07:30:48.741Z,81.1050
2023-04-29T07:31:48.719Z,82.2323
2023-04-29T07:32:48.706Z,81.5391
2023-04-29T07:33:51.856Z,81.4289
2023-04-29T07:34:55.328Z,81.9235
2023-04-29T07:35:55.393Z,82.3909
2023-04-29T07:36:58.592Z,82.0244
2023-04-29T07:38:01.735Z,82.3391
2023-04-29T07:39:04.972Z,83.1740
2023-04-29T07:40:04.911Z,82.6758
2023-04-29T07:41:08.081Z,81.5490
2023-04-29T07:42:08.094Z,81.4230
2023-04-29T07:43:09.437Z,80.7480
2023-04-29T07:44:10.462Z,80.8476
2023-04-29T07:45:10.431Z,80.4905
2023-04-29T07:46:13.632Z,82.1906
2023-04-29T07:47:16.805Z,82.2647
2023-04-29T07:48:16.808Z,82.5415
2023-04-29T07:49:19.999Z,81.6584
2023-04-29T07:50:19.975Z,81.8508
2023-04-29T07:51:23.181Z,81.3486
2023-04-29T07:52:26.313Z,80.5565
2023-04-29T07:53:29.593Z,80.8964
2023-04-29T07:54:29.464Z,79.9856
2023-04-29T07:55:32.688Z,79.7575
2023-04-29T07:56:35.845Z,79.0330
2023-04-29T07:57:38.972Z,79.9026
2023-04-29T07:58:42.140Z,80.0381
2023-04-29T07:59:45.360Z,79.3984
2023-04-29T08:00:48.515Z,79.3778
2023-04-29T08:01:51.718Z,78.2572
2023-04-29T08:02:51.794Z,79.1097
2023-04-29T08:03:51.921Z,78.4440
2023-04-29T08:04:52.481Z,79.1407
2023-04-29T08:05:52.663Z,79.1701
2023-04-29T08:06:55.768Z,79.5673
2023-04-29T08:07:58.940Z,80.1470
2023-04-29T08:09:03.230Z,79.5348
2023-04-29T08:10:03.313Z,79.2838
2023-04-29T08:11:06.756Z,79.1503
2023-04-29T08:12:07.616Z,79.8379
2023-04-29T08:13:08.630Z,80.6595
2023-04-29T08:14:11.817Z,80.5458
2023-04-29T08:15:14.971Z,80.7413
2023-04-29T08:16:18.233Z,78.8625
2023-04-29T08:17:18.219Z,78.4685
2023-04-29T08:18:18.196Z,80.1003
2023-04-29T08:19:21.415Z,78.2786
2023-04-29T08:20:21.458Z,78.5151
2023-04-29T08:21:21.395Z,78.4029
2023-04-29T08:22:24.561Z,78.9212
2023-04-29T08:23:24.571Z,78.5501
2023-04-29T08:24:27.825Z,77.9525
2023-04-29T08:25:27.787Z,77.3498
2023-04-29T08:26:30.959Z,76.3642
2023-04-29T08:27:34.141Z,77.2004
2023-04-29T08:28:37.296Z,78.1371
2023-04-29T08:29:37.330Z,79.9180
2023-04-29T08:30:40.458Z,79.3817
2023-04-29T08:31:43.624Z,76.9699
2023-04-29T08:32:46.816Z,77.0249
2023-04-29T08:33:49.925Z,76.4314
2023-04-29T08:34:53.372Z,76.9442
2023-04-29T08:35:53.374Z,78.6158
2023-04-29T08:36:56.536Z,77.6748
2023-04-29T08:37:59.664Z,77.8839
2023-04-29T08:39:02.817Z,78.7039
2023-04-29T08:40:05.997Z,77.9958
2023-04-29T08:41:09.094Z,78.4584
2023-04-29T08:42:12.243Z,76.2495
2023-04-29T08:43:15.357Z,75.6863
2023-04-29T08:44:18.487Z,76.9162
2023-04-29T08:45:21.728Z,76.4911
2023-04-29T08:46:24.802Z,76.9011
2023-04-29T08:47:28.003Z,76.2003
2023-04-29T08:48:31.183Z,76.9446
2023-04-29T08:49:31.138Z,76.4744
2023-04-29T08:50:34.272Z,77.4975
2023-04-29T08:51:37.445Z,78.1329
2023-04-29T08:52:40.557Z,77.3347
2023-04-29T08:53:43.686Z,77.7137
2023-04-29T08:54:46.837Z,77.7943
2023-04-29T08:55:49.964Z,77.2017
2023-04-29T08:56:53.108Z,76.2064
2023-04-29T08:57:56.244Z,75.9845
2023-04-29T08:58:59.345Z,76.7804
2023-04-29T09:00:02.595Z,77.0324
2023-04-29T09:01:05.717Z,77.1047
2023-04-29T09:02:08.834Z,76.5641
2023-04-29T09:03:12.039Z,77.2205
2023-04-29T09:04:12.064Z,77.7786
2023-04-29T09:05:12.979Z,77.0237
2023-04-29T09:06:16.100Z,77.0591
2023-04-29T09:07:19.244Z,76.8456
2023-04-29T09:08:22.350Z,77.1906
2023-04-29T09:09:25.474Z,77.4517
2023-04-29T09:10:28.602Z,76.0719
2023-04-29T09:11:31.813Z,75.7295
2023-04-29T09:12:34.910Z,75.3618
2023-04-29T09:13:38.036Z,75.7636
2023-04-29T09:14:41.155Z,76.0680
2023-04-29T09:15:44.273Z,76.7676
2023-04-29T09:16:47.625Z,76.2069
2023-04-29T09:17:47.724Z,75.9807
2023-04-29T09:18:47.634Z,75.4430
2023-04-29T09:19:50.745Z,75.2051
2023-04-29T09:20:53.853Z,73.4707
2023-04-29T09:21:57.022Z,73.2412
2023-04-29T09:23:00.202Z,72.9505
2023-04-29T09:24:03.329Z,72.3985
2023-04-29T09:25:06.461Z,72.8095
2023-04-29T09:26:09.621Z,73.3256
2023-04-29T09:27:09.586Z,72.3896
2023-04-29T09:28:12.745Z,70.6824
2023-04-29T09:29:15.887Z,70.5235
2023-04-29T09:30:19.013Z,71.4771
2023-04-29T09:31:22.161Z,72.0696
2023-04-29T09:32:25.319Z,71.5750
2023-04-29T09:33:28.421Z,70.4187
2023-04-29T09:34:31.521Z,71.6458
2023-04-29T09:35:34.776Z,72.1663
2023-04-29T09:36:37.869Z,71.6087
2023-04-29T09:37:41.035Z,71.5431
2023-04-29T09:38:44.736Z,72.7832
2023-04-29T09:39:44.629Z,71.4870
2023-04-29T09:40:59.029Z,72.1808
2023-04-29T09:41:50.362Z,70.8552
2023-04-29T09:42:53.495Z,71.1188
2023-04-29T09:43:56.668Z,69.8442
2023-04-29T09:44:59.805Z,69.9492
2023-04-29T09:46:02.962Z,70.7197
2023-04-29T09:47:06.101Z,70.2154
2023-04-29T09:48:09.219Z,71.7991
2023-04-29T09:49:12.349Z,71.6124
2023-04-29T09:50:15.490Z,73.9245
2023-04-29T09:51:18.616Z,71.3301
2023-04-29T09:52:21.786Z,69.8945
2023-04-29T09:53:24.957Z,68.7714
2023-04-29T09:54:28.087Z,68.7600
2023-04-29T09:55:31.211Z,66.7196
2023-04-29T09:56:34.332Z,68.3158
2023-04-29T09:57:37.492Z,68.5773
2023-04-29T09:58:40.638Z,68.6590
2023-04-29T09:59:43.966Z,69.2430
2023-04-29T10:00:43.863Z,69.4012
2023-04-29T10:01:47.071Z,69.9799
2023-04-29T10:02:50.302Z,70.1823
2023-04-29T10:03:50.375Z,68.4362
2023-04-29T10:04:50.491Z,70.9586
2023-04-29T10:05:50.404Z,70.3417
2023-04-29T10:06:53.533Z,70.2263
2023-04-29T10:07:56.695Z,68.2762
2023-04-29T10:08:59.828Z,66.9967
2023-04-29T10:10:02.977Z,68.0935
2023-04-29T10:11:06.327Z,65.6911
2023-04-29T10:12:06.218Z,66.7644
2023-04-29T10:13:09.330Z,67.6752
2023-04-29T10:14:12.510Z,67.6162
2023-04-29T10:15:15.632Z,66.4347
2023-04-29T10:16:18.867Z,66.2648
2023-04-29T10:17:18.798Z,67.9936
2023-04-29T10:18:21.915Z,65.8528
2023-04-29T10:19:25.094Z,66.0997
2023-04-29T10:20:28.225Z,64.0980
2023-04-29T10:21:31.723Z,64.3062
2023-04-29T10:22:31.790Z,64.7575
2023-04-29T10:23:34.914Z,65.9692
2023-04-29T10:24:38.124Z,68.6283
2023-04-29T10:25:38.033Z,66.9724
2023-04-29T10:26:41.165Z,67.9053
2023-04-29T10:27:44.348Z,65.9566
2023-04-29T10:28:47.492Z,63.1166
2023-04-29T10:29:50.628Z,64.2469
2023-04-29T10:30:53.754Z,65.0991
2023-04-29T10:31:56.889Z,65.9944
2023-04-29T10:33:01.763Z,66.1111
2023-04-29T10:34:01.770Z,64.3918
2023-04-29T10:35:04.919Z,63.5466
2023-04-29T10:36:08.014Z,61.0141
2023-04-29T10:37:11.147Z,61.6490
2023-04-29T10:38:14.275Z,62.0308
2023-04-29T10:39:17.419Z,63.1977
2023-04-29T10:40:20.549Z,62.5226
2023-04-29T10:41:23.656Z,61.6991
2023-04-29T10:42:26.809Z,60.9596
2023-04-29T10:43:29.944Z,62.1408
2023-04-29T10:44:29.895Z,63.6649
2023-04-29T10:45:33.035Z,64.2426
2023-04-29T10:46:36.211Z,63.8977
2023-04-29T10:47:39.307Z,62.9902
2023-04-29T10:48:42.431Z,63.4951
2023-04-29T10:49:45.590Z,63.3087
2023-04-29T10:50:48.757Z,64.4362
2023-04-29T10:51:51.872Z,65.7189
2023-04-29T10:52:54.999Z,67.7303
2023-04-29T10:53:58.214Z,70.2171
2023-04-29T10:54:58.156Z,68.2628
2023-04-29T10:56:01.328Z,71.0175
2023-04-29T10:57:01.303Z,71.5105
2023-04-29T10:58:04.473Z,72.8038
2023-04-29T10:59:07.636Z,74.0777
2023-04-29T11:00:10.792Z,74.7843
2023-04-29T11:01:13.942Z,75.5087
2023-04-29T11:02:17.078Z,75.2746
2023-04-29T11:03:20.693Z,73.5768
2023-04-29T11:04:20.732Z,72.5159
2023-04-29T11:05:20.649Z,73.7011
2023-04-29T11:06:23.826Z,73.9969
2023-04-29T11:07:26.979Z,74.5340
2023-04-29T11:08:30.144Z,75.1906
2023-04-29T11:09:33.337Z,74.2770
2023-04-29T11:10:36.502Z,74.6487
2023-04-29T11:11:39.665Z,72.7728
2023-04-29T11:12:42.799Z,72.1663
2023-04-29T11:13:45.957Z,71.9936
2023-04-29T11:14:49.120Z,73.1843
2023-04-29T11:15:49.117Z,75.6863
2023-04-29T11:16:52.347Z,76.4117
2023-04-29T11:17:52.359Z,72.4090
2023-04-29T11:18:55.497Z,69.9479
2023-04-29T11:19:58.691Z,64.3946
2023-04-29T11:21:01.843Z,69.0927
2023-04-29T11:22:05.011Z,73.6064
2023-04-29T11:23:08.172Z,73.8040
2023-04-29T11:24:11.356Z,71.8807
2023-04-29T11:25:14.556Z,77.7166
2023-04-29T11:26:14.516Z,73.1905
2023-04-29T11:27:14.550Z,72.1058
2023-04-29T11:28:17.686Z,72.0953
2023-04-29T11:29:20.890Z,74.4936
2023-04-29T11:30:20.869Z,70.0587
2023-04-29T11:31:24.782Z,64.3464
2023-04-29T11:32:25.771Z,65.2879
2023-04-29T11:33:25.800Z,67.2078
2023-04-29T11:34:28.954Z,72.9937
2023-04-29T11:35:32.143Z,67.0642
2023-04-29T11:36:32.101Z,65.5286
2023-04-29T11:37:35.240Z,64.2303
2023-04-29T11:38:38.400Z,64.9169
2023-04-29T11:39:41.619Z,64.8345
2023-04-29T11:40:44.751Z,62.3442
2023-04-29T11:41:47.936Z,60.6162
2023-04-29T11:42:51.090Z,62.1324
2023-04-29T11:43:54.234Z,60.3163
2023-04-29T11:44:57.408Z,61.0796
2023-04-29T11:46:00.629Z,60.3730
2023-04-29T11:47:03.762Z,59.6080
2023-04-29T11:48:06.949Z,61.0648
2023-04-29T11:49:10.048Z,59.3241
2023-04-29T11:50:13.223Z,57.4903
2023-04-29T11:51:16.354Z,60.5339
2023-04-29T11:52:19.526Z,62.6042
2023-04-29T11:53:22.682Z,64.0934
2023-04-29T11:54:25.944Z,60.3292
2023-04-29T11:55:25.904Z,62.2279
2023-04-29T11:56:29.060Z,60.3195
2023-04-29T11:57:32.244Z,59.1746
2023-04-29T11:58:35.404Z,57.5206
2023-04-29T11:59:38.545Z,57.8299
2023-04-29T12:00:41.830Z,59.2216
2023-04-29T12:01:41.787Z,60.2588
2023-04-29T12:02:45.043Z,59.7389
2023-04-29T12:03:45.399Z,58.3472
2023-04-29T12:04:45.614Z,57.4599
2023-04-29T12:05:45.743Z,57.4200
2023-04-29T12:06:45.669Z,57.4044
2023-04-29T12:07:48.808Z,59.2656
2023-04-29T12:08:51.954Z,59.3028
2023-04-29T12:09:55.114Z,57.6092
2023-04-29T12:10:55.188Z,57.7552
2023-04-29T12:11:55.094Z,58.4389
2023-04-29T12:12:58.279Z,60.9612
2023-04-29T12:14:01.453Z,59.8060
2023-04-29T12:15:04.644Z,56.2810
2023-04-29T12:16:07.778Z,58.2780
2023-04-29T12:17:10.902Z,58.4087
2023-04-29T12:18:14.107Z,58.5245
2023-04-29T12:19:17.285Z,58.6133
2023-04-29T12:20:20.461Z,58.6115
2023-04-29T12:21:23.663Z,59.2032
2023-04-29T12:22:23.622Z,59.4744
2023-04-29T12:23:26.796Z,59.2995
2023-04-29T12:24:29.984Z,58.5686
2023-04-29T12:25:33.159Z,59.4573
2023-04-29T12:26:36.321Z,59.8854
2023-04-29T12:27:39.463Z,62.9291
2023-04-29T12:28:42.590Z,64.8956
2023-04-29T12:29:45.715Z,66.6269
2023-04-29T12:30:48.993Z,69.0067
2023-04-29T12:31:48.994Z,69.2914